createdAt,value
2022-12-03T00:00:10.505Z,97719.31
2022-12-03T00:02:42.495Z,97721.13
2022-12-03T00:05:11.593Z,97728.75
2022-12-03T00:07:40.115Z,97719.50
2022-12-03T00:10:09.775Z,97727.91
2022-12-03T00:12:38.344Z,97723.75
2022-12-03T00:15:08.506Z,97718.66
2022-12-03T00:17:37.081Z,97720.38
2022-12-03T00:20:09.242Z,97717.00
2022-12-03T00:22:37.728Z,97723.75
2022-12-03T00:25:07.205Z,97724.59
2022-12-03T00:27:35.671Z,97722.81
2022-12-03T00:30:06.192Z,97722.88
2022-12-03T00:32:35.058Z,97727.03
2022-12-03T00:35:03.569Z,97723.63
2022-12-03T00:37:35.082Z,97720.28
2022-12-03T00:40:03.901Z,97718.56
2022-12-03T00:42:32.414Z,97720.13
2022-12-03T00:45:00.996Z,97719.31
2022-12-03T00:47:29.418Z,97717.63
2022-12-03T00:49:57.831Z,97722.81
2022-12-03T00:52:26.288Z,97723.56
2022-12-03T00:54:56.285Z,97722.69
2022-12-03T00:57:24.912Z,97721.06
2022-12-03T00:59:53.451Z,97726.16
2022-12-03T01:02:22.000Z,97723.66
2022-12-03T01:04:50.802Z,97715.97
2022-12-03T01:07:19.446Z,97716.06
2022-12-03T01:09:48.038Z,97713.47
2022-12-03T01:12:17.847Z,97716.94
2022-12-03T01:14:46.288Z,97721.06
2022-12-03T01:17:15.291Z,97722.06
2022-12-03T01:19:48.272Z,97723.75
2022-12-03T01:22:17.065Z,97728.94
2022-12-03T01:24:45.491Z,97728.94
2022-12-03T01:27:14.035Z,97724.69
2022-12-03T01:29:43.863Z,97724.66
2022-12-03T01:32:18.057Z,97727.09
2022-12-03T01:34:47.671Z,97725.41
2022-12-03T01:37:17.096Z,97728.84
2022-12-03T01:39:46.006Z,97724.66
2022-12-03T01:42:18.115Z,97727.22
2022-12-03T01:44:48.523Z,97722.09
2022-12-03T01:47:19.514Z,97719.59
2022-12-03T01:49:52.112Z,97722.06
2022-12-03T01:52:23.882Z,97727.09
2022-12-03T01:54:55.946Z,97729.69
2022-12-03T01:57:27.947Z,97720.41
2022-12-03T02:00:00.003Z,97726.31
2022-12-03T02:02:31.180Z,97725.50
2022-12-03T02:05:00.832Z,97737.28
2022-12-03T02:07:31.474Z,97728.81
2022-12-03T02:10:04.042Z,97730.44
2022-12-03T02:12:35.659Z,97732.19
2022-12-03T02:15:06.667Z,97733.94
2022-12-03T02:17:35.666Z,97736.44
2022-12-03T02:20:06.860Z,97731.38
2022-12-03T02:22:41.377Z,97731.47
2022-12-03T02:25:17.132Z,97736.53
2022-12-03T02:27:47.194Z,97729.69
2022-12-03T02:30:19.462Z,97737.34
2022-12-03T02:32:48.625Z,97735.63
2022-12-03T02:35:18.866Z,97740.63
2022-12-03T02:37:47.834Z,97733.84
2022-12-03T02:40:20.683Z,97729.59
2022-12-03T02:42:52.178Z,97733.00
2022-12-03T02:45:24.539Z,97737.25
2022-12-03T02:47:57.580Z,97735.50
2022-12-03T02:50:29.423Z,97732.09
2022-12-03T02:53:01.657Z,97741.34
2022-12-03T02:55:36.786Z,97730.38
2022-12-03T02:58:06.459Z,97738.81
2022-12-03T03:00:36.556Z,97733.72
2022-12-03T03:03:06.295Z,97736.31
2022-12-03T03:05:36.802Z,97733.75
2022-12-03T03:08:06.477Z,97737.94
2022-12-03T03:10:39.120Z,97737.91
2022-12-03T03:13:12.345Z,97735.41
2022-12-03T03:15:42.166Z,97732.06
2022-12-03T03:18:12.263Z,97726.16
2022-12-03T03:20:41.499Z,97721.94
2022-12-03T03:23:15.820Z,97732.06
2022-12-03T03:25:48.660Z,97731.25
2022-12-03T03:28:17.878Z,97732.84
2022-12-03T03:30:46.635Z,97732.84
2022-12-03T03:33:17.175Z,97725.22
2022-12-03T03:35:48.490Z,97728.72
2022-12-03T03:38:18.578Z,97724.41
2022-12-03T03:40:50.118Z,97728.59
2022-12-03T03:43:18.938Z,97724.28
2022-12-03T03:45:47.520Z,97725.97
2022-12-03T03:48:16.583Z,97725.09
2022-12-03T03:50:46.176Z,97718.31
2022-12-03T03:53:15.584Z,97715.75
2022-12-03T03:55:44.159Z,97722.59
2022-12-03T03:58:14.400Z,97730.13
2022-12-03T04:00:44.822Z,97715.75
2022-12-03T04:03:13.797Z,97719.94
2022-12-03T04:05:42.526Z,97713.28
2022-12-03T04:08:11.219Z,97715.75
2022-12-03T04:10:57.378Z,97712.31
2022-12-03T04:13:27.388Z,97716.59
2022-12-03T04:15:55.935Z,97716.59
2022-12-03T04:18:42.038Z,97714.91
2022-12-03T04:21:28.254Z,97704.69
2022-12-03T04:23:56.827Z,97708.88
2022-12-03T04:26:43.135Z,97705.47
2022-12-03T04:29:13.633Z,97707.28
2022-12-03T04:31:56.282Z,97698.03
2022-12-03T04:34:42.571Z,97708.16
2022-12-03T04:37:11.743Z,97702.16
2022-12-03T04:39:40.228Z,97706.41
2022-12-03T04:42:09.111Z,97703.13
2022-12-03T04:44:39.021Z,97702.25
2022-12-03T04:47:12.351Z,97697.28
2022-12-03T04:49:42.540Z,97703.13
2022-12-03T04:52:11.248Z,97695.47
2022-12-03T04:54:40.086Z,97699.63
2022-12-03T04:57:09.522Z,97701.38
2022-12-03T04:59:39.828Z,97708.97
2022-12-03T05:02:08.940Z,97707.22
2022-12-03T05:04:37.716Z,97708.16
2022-12-03T05:07:06.166Z,97703.03
2022-12-03T05:09:34.681Z,97700.47
2022-12-03T05:12:03.954Z,97701.31
2022-12-03T05:14:32.573Z,97699.63
2022-12-03T05:17:02.467Z,97704.72
2022-12-03T05:19:44.855Z,97695.34
2022-12-03T05:22:13.462Z,97688.59
2022-12-03T05:24:41.883Z,97695.34
2022-12-03T05:27:10.343Z,97692.81
2022-12-03T05:29:38.775Z,97696.09
2022-12-03T05:32:08.617Z,97684.25
2022-12-03T05:34:37.161Z,97687.53
2022-12-03T05:37:05.875Z,97688.31
2022-12-03T05:39:34.343Z,97677.31
2022-12-03T05:42:20.379Z,97676.34
2022-12-03T05:44:48.835Z,97680.59
2022-12-03T05:47:18.634Z,97678.94
2022-12-03T05:49:47.373Z,97685.69
2022-12-03T05:52:15.824Z,97688.38
2022-12-03T05:54:44.481Z,97689.41
2022-12-03T05:57:12.969Z,97685.25
2022-12-03T05:59:41.386Z,97686.16
2022-12-03T06:02:09.923Z,97684.50
2022-12-03T06:04:39.802Z,97686.22
2022-12-03T06:07:12.546Z,97682.75
2022-12-03T06:09:42.582Z,97691.28
2022-12-03T06:12:11.070Z,97698.97
2022-12-03T06:14:39.577Z,97692.22
2022-12-03T06:17:08.292Z,97701.66
2022-12-03T06:19:36.725Z,97714.38
2022-12-03T06:22:06.522Z,97706.16
2022-12-03T06:24:35.009Z,97714.69
2022-12-03T06:27:03.440Z,97718.06
2022-12-03T06:29:32.153Z,97710.56
2022-12-03T06:32:00.748Z,97712.13
2022-12-03T06:34:29.176Z,97709.59
2022-12-03T06:36:57.643Z,97718.16
2022-12-03T06:39:27.893Z,97716.28
2022-12-03T06:41:56.205Z,97714.63
2022-12-03T06:44:24.852Z,97725.53
2022-12-03T06:46:53.440Z,97728.34
2022-12-03T06:49:21.927Z,97728.34
2022-12-03T06:51:50.494Z,97735.13
2022-12-03T06:54:18.930Z,97719.94
2022-12-03T06:56:49.252Z,97712.44
2022-12-03T06:59:17.697Z,97722.56
2022-12-03T07:01:46.169Z,97719.28
2022-12-03T07:04:14.927Z,97727.72
2022-12-03T07:06:43.716Z,97727.78
2022-12-03T07:09:12.161Z,97732.88
2022-12-03T07:11:41.005Z,97731.31
2022-12-03T07:14:12.117Z,97725.41
2022-12-03T07:16:43.102Z,97725.47
2022-12-03T07:19:12.448Z,97737.41
2022-12-03T07:21:41.308Z,97735.84
2022-12-03T07:24:10.033Z,97730.75
2022-12-03T07:26:38.491Z,97729.19
2022-12-03T07:29:06.983Z,97720.78
2022-12-03T07:31:36.899Z,97716.63
2022-12-03T07:34:05.468Z,97726.03
2022-12-03T07:36:34.077Z,97725.22
2022-12-03T07:39:02.560Z,97721.78
2022-12-03T07:41:31.052Z,97723.44
2022-12-03T07:43:59.608Z,97723.31
2022-12-03T07:46:28.272Z,97726.03
2022-12-03T07:48:58.180Z,97720.09
2022-12-03T07:51:32.019Z,97731.97
2022-12-03T07:54:00.930Z,97731.94
2022-12-03T07:56:29.420Z,97723.44
2022-12-03T07:58:57.940Z,97729.44
2022-12-03T08:01:26.606Z,97720.09
2022-12-03T08:03:55.181Z,97715.06
2022-12-03T08:06:25.073Z,97703.28
2022-12-03T08:08:53.545Z,97713.34
2022-12-03T08:11:22.068Z,97721.09
2022-12-03T08:13:50.576Z,97717.63
2022-12-03T08:16:21.125Z,97713.47
2022-12-03T08:18:51.168Z,97713.34
2022-12-03T08:21:21.925Z,97715.94
2022-12-03T08:23:51.858Z,97713.38
2022-12-03T08:26:23.232Z,97720.91
2022-12-03T08:28:52.463Z,97718.38
2022-12-03T08:31:27.910Z,97730.22
2022-12-03T08:34:16.188Z,97726.06
2022-12-03T08:36:44.790Z,97732.94
2022-12-03T08:39:30.024Z,97727.88
2022-12-03T08:42:20.874Z,97734.66
2022-12-03T08:44:49.464Z,97732.06
2022-12-03T08:47:21.432Z,97737.19
2022-12-03T08:49:55.376Z,97737.22
2022-12-03T08:52:31.321Z,97727.91
2022-12-03T08:55:14.013Z,97732.88
2022-12-03T08:57:43.320Z,97723.56
2022-12-03T09:00:21.635Z,97725.16
2022-12-03T09:02:52.757Z,97729.28
2022-12-03T09:05:23.262Z,97720.13
2022-12-03T09:07:51.881Z,97721.66
2022-12-03T09:10:21.865Z,97713.28
2022-12-03T09:12:50.759Z,97718.38
2022-12-03T09:15:19.464Z,97714.81
2022-12-03T09:17:48.853Z,97710.44
2022-12-03T09:20:17.507Z,97704.50
2022-12-03T09:22:45.993Z,97701.00
2022-12-03T09:25:14.905Z,97697.56
2022-12-03T09:27:44.772Z,97701.03
2022-12-03T09:30:14.067Z,97700.09
2022-12-03T09:32:42.690Z,97706.00
2022-12-03T09:35:11.427Z,97715.28
2022-12-03T09:37:39.867Z,97715.13
2022-12-03T09:40:09.782Z,97718.72
2022-12-03T09:42:39.048Z,97715.38
2022-12-03T09:45:12.610Z,97716.78
2022-12-03T09:47:45.767Z,97715.16
2022-12-03T09:50:15.958Z,97715.25
2022-12-03T09:52:45.169Z,97706.69
2022-12-03T09:55:18.298Z,97715.50
2022-12-03T09:57:46.769Z,97711.00
2022-12-03T10:00:19.258Z,97713.59
2022-12-03T10:02:48.786Z,97720.25
2022-12-03T10:05:20.249Z,97716.25
2022-12-03T10:07:51.765Z,97717.28
2022-12-03T10:10:22.717Z,97718.13
2022-12-03T10:12:53.469Z,97717.16
2022-12-03T10:15:24.804Z,97713.75
2022-12-03T10:17:55.491Z,97703.63
2022-12-03T10:20:25.685Z,97700.88
2022-12-03T10:22:54.038Z,97699.16
2022-12-03T10:25:23.886Z,97698.38
2022-12-03T10:28:00.770Z,97690.69
2022-12-03T10:30:31.235Z,97686.47
2022-12-03T10:33:02.625Z,97683.22
2022-12-03T10:35:38.683Z,97683.47
2022-12-03T10:38:09.050Z,97685.13
2022-12-03T10:40:39.922Z,97670.75
2022-12-03T10:43:17.058Z,97678.31
2022-12-03T10:45:48.269Z,97673.22
2022-12-03T10:48:19.328Z,97674.84
2022-12-03T10:50:50.555Z,97663.94
2022-12-03T10:55:59.317Z,97662.84
2022-12-03T10:58:29.192Z,97650.97
2022-12-03T11:00:59.531Z,97656.06
2022-12-03T11:03:31.280Z,97653.53
2022-12-03T11:06:02.067Z,97646.69
2022-12-03T11:08:33.785Z,97644.97
2022-12-03T11:11:05.808Z,97633.84
2022-12-03T11:13:55.273Z,97639.84
2022-12-03T11:17:00.754Z,97639.06
2022-12-03T11:19:46.081Z,97640.63
2022-12-03T11:22:45.875Z,97639.06
2022-12-03T11:25:48.483Z,97640.81
2022-12-03T11:28:54.122Z,97622.34
2022-12-03T11:31:43.218Z,97630.63
2022-12-03T11:34:42.548Z,97632.50
2022-12-03T11:37:24.665Z,97638.47
2022-12-03T11:40:26.565Z,97634.19
2022-12-03T11:42:55.211Z,97639.09
2022-12-03T11:45:31.174Z,97626.22
2022-12-03T11:48:11.618Z,97629.56
2022-12-03T11:50:42.694Z,97623.53
2022-12-03T11:53:17.951Z,97615.91
2022-12-03T11:55:52.166Z,97609.06
2022-12-03T11:58:26.778Z,97603.84
2022-12-03T12:00:57.432Z,97599.66
2022-12-03T12:03:29.328Z,97595.53
2022-12-03T12:06:06.924Z,97599.03
2022-12-03T12:08:37.540Z,97604.97
2022-12-03T12:11:17.626Z,97596.50
2022-12-03T12:13:50.718Z,97597.44
2022-12-03T12:16:40.913Z,97590.06
2022-12-03T12:19:31.935Z,97584.97
2022-12-03T12:22:30.162Z,97579.75
2022-12-03T12:25:00.206Z,97583.91
2022-12-03T12:27:35.418Z,97587.44
2022-12-03T12:30:08.790Z,97579.75
2022-12-03T12:32:44.392Z,97577.31
2022-12-03T12:35:19.837Z,97576.41
2022-12-03T12:37:59.103Z,97571.50
2022-12-03T12:40:30.438Z,97571.50
2022-12-03T12:43:00.483Z,97569.00
2022-12-03T12:45:33.133Z,97565.00
2022-12-03T12:48:06.620Z,97560.63
2022-12-03T12:50:37.576Z,97559.81
2022-12-03T12:53:13.514Z,97557.31
2022-12-03T12:55:42.195Z,97563.19
2022-12-03T12:58:17.222Z,97552.94
2022-12-03T13:00:53.666Z,97545.53
2022-12-03T13:03:23.852Z,97549.69
2022-12-03T13:05:54.847Z,97551.56
2022-12-03T13:08:27.269Z,97550.94
2022-12-03T13:10:57.120Z,97554.41
2022-12-03T13:13:30.127Z,97554.41
2022-12-03T13:16:02.599Z,97546.63
2022-12-03T13:18:35.247Z,97552.66
2022-12-03T13:21:14.576Z,97556.75
2022-12-03T13:23:43.164Z,97550.69
2022-12-03T13:26:32.937Z,97553.31
2022-12-03T13:29:11.858Z,97551.66
2022-12-03T13:31:43.711Z,97544.88
2022-12-03T13:34:17.675Z,97533.81
2022-12-03T13:36:53.474Z,97545.78
2022-12-03T13:39:30.455Z,97544.19
2022-12-03T13:42:20.563Z,97543.44
2022-12-03T13:44:50.936Z,97539.78
2022-12-03T13:47:20.228Z,97547.53
2022-12-03T13:49:53.844Z,97539.38
2022-12-03T13:52:26.360Z,97539.44
2022-12-03T13:54:57.142Z,97538.63
2022-12-03T13:57:25.668Z,97543.06
2022-12-03T13:59:54.403Z,97543.03
2022-12-03T14:02:23.098Z,97531.00
2022-12-03T14:04:56.777Z,97533.66
2022-12-03T14:07:30.143Z,97534.44
2022-12-03T14:09:58.656Z,97543.72
2022-12-03T14:12:27.334Z,97541.19
2022-12-03T14:14:56.236Z,97534.50
2022-12-03T14:17:24.817Z,97547.97
2022-12-03T14:19:53.534Z,97536.06
2022-12-03T14:22:25.183Z,97541.16
2022-12-03T14:24:55.408Z,97532.69
2022-12-03T14:27:25.667Z,97538.75
2022-12-03T14:29:54.479Z,97538.78
2022-12-03T14:32:23.220Z,97546.41
2022-12-03T14:34:51.745Z,97545.47
2022-12-03T14:37:20.555Z,97537.94
2022-12-03T14:39:49.096Z,97535.28
2022-12-03T14:42:19.029Z,97531.81
2022-12-03T14:44:49.699Z,97534.50
2022-12-03T14:47:20.332Z,97533.63
2022-12-03T14:49:49.386Z,97536.94
2022-12-03T14:52:18.325Z,97541.16
2022-12-03T14:54:46.977Z,97536.88
2022-12-03T14:57:16.480Z,97532.78
2022-12-03T14:59:46.885Z,97537.22
2022-12-03T15:02:15.408Z,97529.63
2022-12-03T15:04:43.982Z,97535.53
2022-12-03T15:07:12.563Z,97537.16
2022-12-03T15:09:41.026Z,97542.19
2022-12-03T15:12:09.588Z,97538.69
2022-12-03T15:14:38.140Z,97538.69
2022-12-03T15:17:08.071Z,97541.03
2022-12-03T15:19:36.615Z,97531.88
2022-12-03T15:22:05.131Z,97537.00
2022-12-03T15:24:33.992Z,97541.31
2022-12-03T15:27:02.586Z,97535.44
2022-12-03T15:29:32.768Z,97533.81
2022-12-03T15:32:03.112Z,97538.06
2022-12-03T15:34:32.992Z,97540.56
2022-12-03T15:37:01.470Z,97544.00
2022-12-03T15:39:29.949Z,97548.19
2022-12-03T15:41:58.431Z,97539.97
2022-12-03T15:44:37.004Z,97544.97
2022-12-03T15:47:14.828Z,97540.84
2022-12-03T15:49:44.722Z,97535.81
2022-12-03T15:52:13.387Z,97531.50
2022-12-03T15:54:41.909Z,97534.03
2022-12-03T15:57:10.595Z,97531.53
2022-12-03T15:59:39.111Z,97532.34
2022-12-03T16:02:07.851Z,97525.44
2022-12-03T16:04:37.232Z,97530.53
2022-12-03T16:07:07.175Z,97521.38
2022-12-03T16:09:36.530Z,97521.38
2022-12-03T16:12:05.478Z,97527.38
2022-12-03T16:14:34.022Z,97527.34
2022-12-03T16:17:02.974Z,97529.88
2022-12-03T16:19:31.524Z,97521.38
2022-12-03T16:22:02.111Z,97524.75
2022-12-03T16:24:32.006Z,97518.97
2022-12-03T16:27:01.368Z,97529.75
2022-12-03T16:29:36.245Z,97524.72
2022-12-03T16:32:05.427Z,97526.50
2022-12-03T16:34:34.128Z,97528.13
2022-12-03T16:37:04.742Z,97529.13
2022-12-03T16:39:39.123Z,97532.50
2022-12-03T16:42:14.094Z,97534.16
2022-12-03T16:45:15.809Z,97526.50
2022-12-03T16:47:44.576Z,97522.34
2022-12-03T16:50:20.689Z,97520.66
2022-12-03T16:52:50.492Z,97519.66
2022-12-03T16:55:20.339Z,97526.47
2022-12-03T16:57:48.847Z,97525.66
2022-12-03T17:00:17.920Z,97518.03
2022-12-03T17:02:46.524Z,97524.75
2022-12-03T17:05:15.222Z,97514.72
2022-12-03T17:07:43.925Z,97521.50
2022-12-03T17:10:12.932Z,97521.53
2022-12-03T17:13:08.340Z,97525.88
2022-12-03T17:15:31.596Z,97514.00
2022-12-03T17:18:00.336Z,97514.78
2022-12-03T17:20:28.977Z,97519.03
2022-12-03T17:22:58.246Z,97514.09
2022-12-03T17:25:27.039Z,97511.59
2022-12-03T17:27:57.205Z,97517.41
2022-12-03T17:30:25.718Z,97512.38
2022-12-03T17:32:54.294Z,97504.78
2022-12-03T17:35:22.870Z,97498.94
2022-12-03T17:37:51.355Z,97496.38
2022-12-03T17:40:19.998Z,97499.75
2022-12-03T17:42:48.541Z,97499.78
2022-12-03T17:45:18.872Z,97498.97
2022-12-03T17:47:47.240Z,97504.00
2022-12-03T17:50:15.709Z,97495.47
2022-12-03T17:52:44.173Z,97494.72
2022-12-03T17:55:21.177Z,97486.50
2022-12-03T17:57:54.840Z,97492.41
2022-12-03T18:00:24.795Z,97489.84
2022-12-03T18:02:53.313Z,97486.56
2022-12-03T18:05:22.962Z,97479.53
2022-12-03T18:07:51.900Z,97486.34
2022-12-03T18:10:20.379Z,97480.34
2022-12-03T18:12:49.017Z,97480.34
2022-12-03T18:15:17.713Z,97477.81
2022-12-03T18:17:47.558Z,97480.28
2022-12-03T18:20:16.049Z,97483.75
2022-12-03T18:22:45.486Z,97475.31
2022-12-03T18:25:14.453Z,97477.81
2022-12-03T18:27:43.005Z,97474.34
2022-12-03T18:30:12.293Z,97471.00
2022-12-03T18:32:41.039Z,97472.66
2022-12-03T18:35:10.985Z,97465.06
2022-12-03T18:37:40.085Z,97460.81
2022-12-03T18:40:17.354Z,97466.59
2022-12-03T18:42:45.881Z,97459.00
2022-12-03T18:45:14.900Z,97465.00
2022-12-03T18:47:43.741Z,97464.16
2022-12-03T18:50:14.200Z,97467.44
2022-12-03T18:52:42.768Z,97461.53
2022-12-03T18:55:15.966Z,97474.22
2022-12-03T18:57:44.623Z,97478.44
2022-12-03T19:00:14.568Z,97476.75
2022-12-03T19:03:02.600Z,97478.53
2022-12-03T19:05:35.616Z,97478.53
2022-12-03T19:08:08.814Z,97475.97
2022-12-03T19:10:37.448Z,97474.19
2022-12-03T19:13:05.908Z,97470.00
2022-12-03T19:15:37.092Z,97470.88
2022-12-03T19:18:07.370Z,97461.44
2022-12-03T19:20:40.924Z,97460.72
2022-12-03T19:23:09.732Z,97471.69
2022-12-03T19:25:38.207Z,97471.00
2022-12-03T19:28:07.085Z,97460.06
2022-12-03T19:30:35.592Z,97464.19
2022-12-03T19:33:04.135Z,97463.38
2022-12-03T19:35:33.437Z,97463.34
2022-12-03T19:38:03.178Z,97463.34
2022-12-03T19:40:32.203Z,97462.66
2022-12-03T19:43:01.055Z,97457.63
2022-12-03T19:45:29.561Z,97460.16
2022-12-03T19:47:58.186Z,97458.44
2022-12-03T19:50:26.633Z,97459.28
2022-12-03T19:52:55.133Z,97458.31
2022-12-03T19:55:24.986Z,97452.38
2022-12-03T19:57:53.510Z,97456.56
2022-12-03T20:00:24.657Z,97449.00
2022-12-03T20:02:53.191Z,97449.75
2022-12-03T20:05:21.814Z,97450.56
2022-12-03T20:07:50.581Z,97457.38
2022-12-03T20:10:19.472Z,97452.41
2022-12-03T20:12:49.243Z,97457.38
2022-12-03T20:15:17.810Z,97453.09
2022-12-03T20:17:46.222Z,97446.28
2022-12-03T20:20:14.875Z,97449.75
2022-12-03T20:22:43.312Z,97449.75
2022-12-03T20:25:12.234Z,97449.75
2022-12-03T20:27:40.758Z,97440.44
2022-12-03T20:30:11.715Z,97443.75
2022-12-03T20:32:45.055Z,97444.50
2022-12-03T20:35:14.112Z,97445.31
2022-12-03T20:37:42.700Z,97435.09
2022-12-03T20:40:11.923Z,97440.22
2022-12-03T20:42:41.365Z,97439.47
2022-12-03T20:45:11.957Z,97425.78
2022-12-03T20:47:40.547Z,97433.50
2022-12-03T20:50:09.792Z,97432.59
2022-12-03T20:52:38.277Z,97429.22
2022-12-03T20:55:07.722Z,97430.13
2022-12-03T20:57:36.242Z,97431.84
2022-12-03T21:00:05.910Z,97442.94
2022-12-03T21:02:35.975Z,97441.03
2022-12-03T21:05:04.976Z,97424.06
2022-12-03T21:07:33.467Z,97416.63
2022-12-03T21:10:02.083Z,97422.50
2022-12-03T21:12:30.468Z,97425.97
2022-12-03T21:14:58.909Z,97426.72
2022-12-03T21:17:27.492Z,97421.66
2022-12-03T21:19:57.607Z,97419.97
2022-12-03T21:22:26.133Z,97421.66
2022-12-03T21:24:54.564Z,97410.69
2022-12-03T21:27:22.980Z,97397.09
2022-12-03T21:29:51.566Z,97403.03
2022-12-03T21:32:20.151Z,97393.53
2022-12-03T21:34:48.587Z,97396.22
2022-12-03T21:37:18.462Z,97412.22
2022-12-03T21:39:46.917Z,97397.81
2022-12-03T21:42:33.840Z,97408.00
2022-12-03T21:45:04.064Z,97402.94
2022-12-03T21:47:37.357Z,97404.53
2022-12-03T21:50:11.152Z,97396.13
2022-12-03T21:52:41.465Z,97387.69
2022-12-03T21:55:10.714Z,97391.16
2022-12-03T21:57:39.161Z,97385.06
2022-12-03T22:00:09.565Z,97385.06
2022-12-03T22:02:41.616Z,97385.81
2022-12-03T22:05:11.700Z,97388.34
2022-12-03T22:07:41.697Z,97392.59
2022-12-03T22:10:11.884Z,97385.91
2022-12-03T22:12:41.986Z,97380.88
2022-12-03T22:15:16.751Z,97391.94
2022-12-03T22:17:47.535Z,97392.78
2022-12-03T22:20:16.412Z,97391.84
2022-12-03T22:22:46.426Z,97394.28
2022-12-03T22:25:14.970Z,97395.38
2022-12-03T22:27:43.451Z,97400.34
2022-12-03T22:30:12.326Z,97392.59
2022-12-03T22:32:40.757Z,97403.47
2022-12-03T22:35:10.013Z,97400.94
2022-12-03T22:37:38.702Z,97400.94
2022-12-03T22:40:10.063Z,97400.13
2022-12-03T22:42:38.610Z,97390.84
2022-12-03T22:45:08.200Z,97389.34
2022-12-03T22:47:36.664Z,97383.47
2022-12-03T22:50:05.850Z,97385.97
2022-12-03T22:52:34.300Z,97392.81
2022-12-03T22:55:02.765Z,97393.59
2022-12-03T22:57:33.329Z,97395.22
2022-12-03T23:00:01.772Z,97380.84
2022-12-03T23:02:30.375Z,97385.06
2022-12-03T23:04:58.830Z,97385.91
2022-12-03T23:07:27.414Z,97377.44
2022-12-03T23:09:56.295Z,97363.84
2022-12-03T23:12:25.429Z,97365.50
2022-12-03T23:14:55.860Z,97353.59
2022-12-03T23:17:24.283Z,97358.81
2022-12-03T23:19:53.276Z,97343.44
2022-12-03T23:22:21.975Z,97343.50
2022-12-03T23:24:50.444Z,97344.53
2022-12-03T23:27:18.906Z,97333.28
2022-12-03T23:29:47.359Z,97342.78
2022-12-03T23:32:17.132Z,97353.56
2022-12-03T23:34:45.876Z,97346.94
2022-12-03T23:37:14.448Z,97358.19
2022-12-03T23:39:42.901Z,97344.63
2022-12-03T23:42:11.396Z,97337.09
2022-12-03T23:44:39.799Z,97328.47
2022-12-03T23:47:08.450Z,97330.13
2022-12-03T23:49:38.423Z,97333.66
2022-12-03T23:52:06.980Z,97326.03
2022-12-03T23:54:35.946Z,97323.34
2022-12-03T23:57:04.573Z,97326.00
2022-12-03T23:59:33.075Z,97326.09
